Time;durP1;ratioP1;P1;durP2;ratioP2;P2;SDS_P1;SDS_P2;PMS_P1;PMS_P2;Temp;Humidity;BMP_temperature;BMP_pressure;BME280_temperature;BME280_humidity;BME280_pressure;Samples;Min_cycle;Max_cycle;Signal;HPM_P1;HPM_P2
2022/01/23 00:02:15;;;;;;;27.73;18.05;;;;;;;4.20;100.00;102916.97;5008745;28;20439;-86
2022/01/23 00:04:41;;;;;;;25.08;16.35;;;;;;;4.14;100.00;102912.81;4994106;28;20044;-85
2022/01/23 00:07:10;;;;;;;23.50;14.57;;;;;;;4.13;100.00;102919.06;5009390;28;20046;-85
2022/01/23 00:09:36;;;;;;;26.40;16.17;;;;;;;4.13;100.00;102926.19;4989921;28;20042;-85
2022/01/23 00:12:06;;;;;;;27.65;17.50;;;;;;;4.12;100.00;102933.28;4993513;28;20057;-85
2022/01/23 00:17:23;;;;;;;23.45;14.35;;;;;;;4.11;100.00;102926.22;4998868;28;20185;-85
2022/01/23 00:19:54;;;;;;;24.60;14.55;;;;;;;4.12;100.00;102933.28;5005926;28;20419;-86
2022/01/23 00:22:33;;;;;;;24.95;14.95;;;;;;;4.13;100.00;102924.38;5003183;28;20095;-86
2022/01/23 00:30:39;;;;;;;28.02;16.63;;;;;;;4.16;100.00;102934.00;5000184;28;20080;-85
2022/01/23 00:33:12;;;;;;;26.73;18.02;;;;;;;4.17;100.00;102933.97;4983976;28;20491;-85
2022/01/23 00:35:40;;;;;;;32.95;20.27;;;;;;;4.20;100.00;102931.16;4983066;28;20517;-85
2022/01/23 00:38:10;;;;;;;28.65;19.45;;;;;;;4.21;100.00;102943.50;5004995;28;20049;-86
2022/01/23 00:40:37;;;;;;;26.02;15.98;;;;;;;4.20;100.00;102933.81;4991071;28;20080;-85
2022/01/23 00:43:26;;;;;;;26.95;16.55;;;;;;;4.20;100.00;102935.59;5025990;28;20064;-87
2022/01/23 00:46:11;;;;;;;30.52;17.73;;;;;;;4.17;100.00;102941.94;5001452;28;20046;-87
2022/01/23 00:48:50;;;;;;;31.65;19.10;;;;;;;4.18;100.00;102935.66;5020435;28;20410;-85
2022/01/23 00:51:20;;;;;;;27.63;15.88;;;;;;;4.17;100.00;102931.31;4983170;28;20131;-85
2022/01/23 00:53:54;;;;;;;34.63;20.65;;;;;;;4.20;100.00;102941.78;4987664;28;20091;-85
2022/01/23 00:56:21;;;;;;;34.13;19.52;;;;;;;4.20;100.00;102946.22;4999508;28;20125;-85
2022/01/23 00:58:55;;;;;;;34.42;19.77;;;;;;;4.21;100.00;102943.50;5004506;28;20052;-86
2022/01/23 01:01:20;;;;;;;31.20;20.35;;;;;;;4.22;100.00;102942.56;4980936;28;20107;-86
2022/01/23 01:03:57;;;;;;;31.67;17.52;;;;;;;4.20;100.00;102947.09;5004789;28;20041;-86
2022/01/23 01:06:23;;;;;;;37.17;21.95;;;;;;;4.21;100.00;102946.16;5006684;28;20092;-84
2022/01/23 01:08:53;;;;;;;38.47;18.52;;;;;;;4.20;100.00;102936.47;4992429;28;20038;-85
2022/01/23 01:17:41;;;;;;;31.48;20.08;;;;;;;4.18;100.00;102922.38;5034704;28;20043;-86
2022/01/23 01:30:34;;;;;;;35.33;20.40;;;;;;;4.17;100.00;102918.00;5003348;28;20443;-85
2022/01/23 01:38:20;;;;;;;37.08;19.90;;;;;;;4.19;100.00;102925.91;4999552;28;20038;-85
2022/01/23 01:40:45;;;;;;;33.75;17.27;;;;;;;4.17;100.00;102922.44;5018293;28;20038;-84
2022/01/23 01:43:14;;;;;;;39.75;19.75;;;;;;;4.18;100.00;102935.66;5007817;28;20048;-85
2022/01/23 01:45:42;;;;;;;38.97;20.83;;;;;;;4.19;100.00;102923.25;5015134;28;20041;-85
2022/01/23 01:48:08;;;;;;;35.08;18.75;;;;;;;4.21;100.00;102930.22;5003676;28;20074;-85
2022/01/23 01:50:35;;;;;;;31.20;16.08;;;;;;;4.19;100.00;102929.41;4987482;28;20046;-85
2022/01/23 01:53:01;;;;;;;28.92;17.38;;;;;;;4.19;100.00;102924.09;4997422;28;20038;-85
2022/01/23 01:55:40;;;;;;;34.22;19.52;;;;;;;4.20;100.00;102923.19;5000068;28;20133;-85
2022/01/23 01:58:13;;;;;;;34.67;16.45;;;;;;;4.20;100.00;102923.19;4985785;28;20048;-84
2022/01/23 02:00:53;;;;;;;37.50;19.40;;;;;;;4.23;100.00;102922.16;5000934;28;20070;-85
2022/01/23 02:08:16;;;;;;;34.72;18.63;;;;;;;4.22;100.00;102918.63;5000120;28;20038;-84
2022/01/23 02:08:58;;;;;;;35.22;19.35;;;;;;;4.20;100.00;102916.97;4979245;28;20045;-85
2022/01/23 02:15:11;;;;;;;33.72;21.75;;;;;;;4.21;100.00;102924.91;5007074;28;20518;-85
2022/01/23 02:17:21;;;;;;;36.28;22.67;;;;;;;4.21;100.00;102919.59;4985340;28;20057;-86
2022/01/23 02:23:09;;;;;;;34.40;19.35;;;;;;;4.18;100.00;102911.75;4993261;28;20045;-84
2022/01/23 02:50:48;;;;;;;36.00;21.60;;;;;;;4.13;100.00;102912.91;5000989;28;20620;-85
2022/01/23 02:53:32;;;;;;;36.70;17.95;;;;;;;4.13;100.00;102919.06;5009248;28;20054;-85
2022/01/23 02:56:02;;;;;;;33.22;18.58;;;;;;;4.12;100.00;102917.34;4994175;28;20050;-84
2022/01/23 02:58:36;;;;;;;32.92;20.75;;;;;;;4.14;100.00;102920.78;4963850;28;20110;-86
2022/01/23 03:01:16;;;;;;;29.25;16.92;;;;;;;4.12;100.00;102912.03;5000853;28;20042;-85
2022/01/23 03:03:57;;;;;;;35.10;19.75;;;;;;;4.12;100.00;102917.34;4981478;28;20410;-85
2022/01/23 03:14:40;;;;;;;31.40;19.33;;;;;;;4.10;100.00;102929.84;5007068;28;20667;-86
2022/01/23 03:30:36;;;;;;;35.80;20.58;;;;;;;4.03;100.00;102933.72;4998936;28;20607;-87
2022/01/23 03:33:02;;;;;;;35.33;20.40;;;;;;;4.03;100.00;102944.34;4976111;28;20046;-85
2022/01/23 03:35:27;;;;;;;34.17;17.48;;;;;;;4.01;100.00;102935.56;4997719;28;20034;-85
2022/01/23 03:37:52;;;;;;;34.53;19.65;;;;;;;4.02;100.00;102945.25;4969981;28;20140;-85
2022/01/23 03:40:18;;;;;;;32.63;18.00;;;;;;;3.99;100.00;102938.28;4990694;28;20034;-84
2022/01/23 03:42:45;;;;;;;36.78;18.40;;;;;;;3.99;100.00;102937.44;4990235;28;20039;-85
2022/01/23 03:50:41;;;;;;;35.55;19.13;;;;;;;3.96;100.00;102948.19;5009070;28;20050;-85
2022/01/23 03:53:06;;;;;;;35.53;18.98;;;;;;;3.96;100.00;102949.06;4992189;28;20038;-87
2022/01/23 03:55:32;;;;;;;36.88;19.60;;;;;;;3.97;100.00;102942.81;4990936;28;20037;-84
2022/01/23 03:57:57;;;;;;;37.35;20.85;;;;;;;3.99;100.00;102956.88;5005168;28;20561;-85
2022/01/23 04:00:23;;;;;;;38.17;22.08;;;;;;;4.00;100.00;102952.44;5009654;28;20041;-86
2022/01/23 04:02:50;;;;;;;34.15;17.98;;;;;;;3.95;100.00;102950.00;4999898;28;20125;-86
2022/01/23 04:05:16;;;;;;;35.13;19.77;;;;;;;3.96;100.00;102962.34;4990766;28;20049;-85
2022/01/23 04:07:41;;;;;;;36.30;20.15;;;;;;;3.99;100.00;102964.84;4973873;28;20038;-84
2022/01/23 04:10:08;;;;;;;40.33;22.13;;;;;;;4.00;100.00;102960.41;4974124;28;20549;-85
2022/01/23 04:12:45;;;;;;;38.78;21.35;;;;;;;3.99;100.00;102953.38;5004465;28;20038;-85
2022/01/23 04:20:34;;;;;;;35.70;19.02;;;;;;;3.98;100.00;102952.50;4990777;28;20226;-85
2022/01/23 04:34:11;;;;;;;37.00;21.23;;;;;;;3.92;100.00;102962.56;4971116;28;20650;-85
2022/01/23 04:45:20;;;;;;;41.25;22.35;;;;;;;3.92;100.00;102951.94;4942107;28;20041;-85
2022/01/23 05:04:24;;;;;;;43.72;24.67;;;;;;;3.92;100.00;102962.56;4989148;28;20038;-85
2022/01/23 05:06:59;;;;;;;43.88;24.30;;;;;;;3.92;100.00;102965.22;4973508;28;20049;-85
2022/01/23 05:09:27;;;;;;;44.05;27.17;;;;;;;3.93;100.00;102962.47;4989884;28;20054;-85
2022/01/23 05:11:57;;;;;;;44.97;25.02;;;;;;;3.95;100.00;102952.66;4979255;28;20042;-86
2022/01/23 05:14:29;;;;;;;40.97;22.52;;;;;;;3.93;100.00;102961.63;4970100;28;20038;-85
2022/01/23 05:16:56;;;;;;;39.35;24.13;;;;;;;3.94;100.00;102952.72;4969583;28;30499;-85
2022/01/23 05:19:21;;;;;;;43.97;22.23;;;;;;;3.94;100.00;102963.34;4978119;28;20070;-86
2022/01/23 05:24:37;;;;;;;47.33;24.02;;;;;;;3.93;100.00;102965.13;5008586;28;20052;-85
2022/01/23 05:27:04;;;;;;;48.95;23.33;;;;;;;3.94;100.00;102963.34;5002417;28;20101;-85
2022/01/23 05:29:42;;;;;;;46.78;24.48;;;;;;;3.92;100.00;102958.09;5016105;28;20125;-86
2022/01/23 05:32:12;;;;;;;51.92;24.90;;;;;;;3.94;100.00;102955.38;5007909;28;20077;-85
2022/01/23 05:34:40;;;;;;;54.00;26.60;;;;;;;3.93;100.00;102958.97;4975807;28;20387;-86
2022/01/23 05:37:09;;;;;;;59.63;29.33;;;;;;;3.96;100.00;102958.81;4997805;28;20050;-85
2022/01/23 05:39:36;;;;;;;59.35;27.88;;;;;;;3.95;100.00;102965.06;4999331;28;20054;-85
2022/01/23 05:42:07;;;;;;;65.47;29.60;;;;;;;3.95;100.00;102963.28;4990115;28;20046;-85
2022/01/23 05:44:37;;;;;;;72.97;33.10;;;;;;;3.99;100.00;102971.97;4994573;28;20046;-85
2022/01/23 05:47:05;;;;;;;80.95;38.45;;;;;;;4.00;100.00;102977.22;4978084;28;20198;-85
2022/01/23 05:49:37;;;;;;;71.22;34.47;;;;;;;3.98;100.00;102972.91;4998936;28;20049;-85
2022/01/23 05:52:20;;;;;;;78.55;33.83;;;;;;;4.00;100.00;102979.00;4974567;28;20602;-85
2022/01/23 05:54:46;;;;;;;89.43;36.95;;;;;;;4.00;100.00;102976.34;4980594;28;20138;-85
2022/01/23 05:57:12;;;;;;;86.55;36.35;;;;;;;4.00;100.00;102979.00;4985420;28;20078;-85
2022/01/23 05:59:39;;;;;;;87.22;39.75;;;;;;;4.04;100.00;102985.91;4981379;28;20080;-85
2022/01/23 06:02:09;;;;;;;99.82;42.20;;;;;;;4.03;100.00;102981.53;4965276;28;20057;-85
2022/01/23 06:04:34;;;;;;;87.25;36.25;;;;;;;4.00;100.00;102977.22;5000025;28;20538;-87
2022/01/23 06:07:08;;;;;;;98.68;35.88;;;;;;;3.99;100.00;102982.59;5000140;28;20054;-85
2022/01/23 06:09:37;;;;;;;108.10;42.00;;;;;;;4.01;100.00;102983.41;4998301;28;20427;-85
2022/01/23 06:12:04;;;;;;;122.32;47.50;;;;;;;4.03;100.00;102978.88;5001520;28;20041;-86
2022/01/23 06:14:29;;;;;;;108.95;40.20;;;;;;;4.01;100.00;102980.75;4990603;28;20042;-86
2022/01/23 06:16:55;;;;;;;113.40;43.08;;;;;;;4.03;100.00;102982.41;4997575;28;20077;-85
2022/01/23 06:19:21;;;;;;;126.00;44.80;;;;;;;4.05;100.00;102990.28;4985281;28;20133;-85
2022/01/23 06:21:49;;;;;;;124.45;42.25;;;;;;;4.04;100.00;102988.56;4992289;28;20042;-86
2022/01/23 06:24:29;;;;;;;128.30;45.80;;;;;;;4.04;100.00;102984.13;4993533;28;20045;-88
2022/01/23 06:27:01;;;;;;;141.13;51.05;;;;;;;4.04;100.00;102981.47;5002717;28;20135;-86
2022/01/23 06:29:30;;;;;;;144.80;47.30;;;;;;;4.04;100.00;102988.56;4977150;28;20046;-85
2022/01/23 06:32:04;;;;;;;134.52;44.38;;;;;;;3.99;100.00;102991.41;5007821;28;20116;-85
2022/01/23 06:34:38;;;;;;;159.65;54.78;;;;;;;4.03;100.00;102995.69;5005461;28;20431;-86
2022/01/23 06:37:05;;;;;;;150.50;50.47;;;;;;;4.02;100.00;102993.09;5002553;28;20447;-85
2022/01/23 06:39:34;;;;;;;171.98;54.50;;;;;;;4.03;100.00;102998.34;4973308;28;20391;-86
2022/01/23 06:42:07;;;;;;;170.95;52.00;;;;;;;4.02;100.00;102995.75;4991053;28;20394;-85
2022/01/23 06:44:36;;;;;;;164.20;50.20;;;;;;;4.02;100.00;102987.78;5006012;28;20042;-86
2022/01/23 06:47:01;;;;;;;185.70;62.15;;;;;;;4.04;100.00;103000.06;5005832;28;20045;-86
2022/01/23 06:49:30;;;;;;;183.85;61.83;;;;;;;4.03;100.00;102995.69;4991001;28;20490;-86
2022/01/23 06:51:57;;;;;;;187.77;61.33;;;;;;;4.04;100.00;103008.03;5014413;28;20181;-85
2022/01/23 06:54:22;;;;;;;219.30;64.55;;;;;;;4.03;100.00;103002.81;4994026;28;20050;-86
2022/01/23 06:56:53;;;;;;;208.50;61.33;;;;;;;4.01;100.00;103004.66;5001296;28;20073;-87
2022/01/23 06:59:19;;;;;;;225.35;57.78;;;;;;;3.98;100.00;103005.66;5001278;28;20278;-86
2022/01/23 07:01:44;;;;;;;220.40;55.63;;;;;;;3.97;100.00;102998.63;4996933;28;20045;-85
2022/01/23 07:04:14;;;;;;;247.82;64.25;;;;;;;4.01;100.00;103004.66;4975115;28;20056;-86
2022/01/23 07:06:40;;;;;;;231.23;67.28;;;;;;;4.04;100.00;103012.50;4986183;28;20105;-87
2022/01/23 07:09:08;;;;;;;269.95;71.68;;;;;;;4.05;100.00;103011.53;4988248;28;20053;-87
2022/01/23 07:11:33;;;;;;;269.10;75.65;;;;;;;4.05;100.00;103022.16;5002834;28;20581;-87
2022/01/23 07:13:59;;;;;;;243.50;64.13;;;;;;;4.04;100.00;103023.13;4966249;28;20153;-85
2022/01/23 07:16:24;;;;;;;283.02;79.03;;;;;;;4.07;100.00;103020.31;5029407;28;20463;-86
2022/01/23 07:18:57;;;;;;;242.98;65.03;;;;;;;4.04;100.00;103021.31;5008934;28;20557;-86
2022/01/23 07:21:23;;;;;;;258.48;73.28;;;;;;;4.06;100.00;103023.91;4991259;28;20487;-87
2022/01/23 07:23:50;;;;;;;248.93;73.93;;;;;;;4.06;100.00;103023.91;4989165;28;20041;-87
2022/01/23 07:26:19;;;;;;;268.08;78.53;;;;;;;4.05;100.00;103022.16;5003232;28;20042;-85
2022/01/23 07:28:46;;;;;;;262.90;72.65;;;;;;;4.05;100.00;103032.81;5008445;28;20126;-85
2022/01/23 07:31:20;;;;;;;268.60;74.63;;;;;;;4.06;100.00;103031.88;5004213;28;20104;-88
2022/01/23 07:33:45;;;;;;;313.23;75.90;;;;;;;4.04;100.00;103034.59;5006535;28;20465;-84
2022/01/23 07:36:10;;;;;;;305.77;77.15;;;;;;;4.06;100.00;103042.53;5008640;28;20149;-87
2022/01/23 07:38:36;;;;;;;241.20;63.45;;;;;;;4.03;100.00;103043.50;5004075;28;20095;-87
2022/01/23 07:41:01;;;;;;;238.35;63.55;;;;;;;4.01;100.00;103042.72;5009446;28;20045;-87
2022/01/23 07:43:27;;;;;;;241.70;71.93;;;;;;;4.02;100.00;103046.22;5007626;28;20180;-87
2022/01/23 07:45:52;;;;;;;245.10;67.43;;;;;;;4.04;100.00;103049.69;4999646;28;20041;-86
2022/01/23 07:48:18;;;;;;;234.95;67.28;;;;;;;4.03;100.00;103042.66;4998638;28;20072;-87
2022/01/23 07:50:44;;;;;;;202.02;60.10;;;;;;;4.00;100.00;103050.72;5006337;28;20045;-87
2022/01/23 07:53:09;;;;;;;211.82;64.63;;;;;;;4.04;100.00;103058.50;5001625;28;20050;-87
2022/01/23 07:55:34;;;;;;;232.85;71.28;;;;;;;4.06;100.00;103061.13;5009561;28;20140;-86
2022/01/23 07:58:05;;;;;;;206.90;64.25;;;;;;;4.08;100.00;103053.91;5004444;28;20034;-87
2022/01/23 08:00:33;;;;;;;204.18;58.63;;;;;;;4.06;100.00;103050.50;5003720;28;20092;-86
2022/01/23 08:02:58;;;;;;;218.82;62.15;;;;;;;4.05;100.00;103054.91;4998934;28;20129;-87
2022/01/23 08:05:24;;;;;;;222.23;69.97;;;;;;;4.08;100.00;103053.91;5004633;28;20117;-87
2022/01/23 08:07:49;;;;;;;228.35;69.72;;;;;;;4.09;100.00;103054.81;4988194;28;20045;-87
2022/01/23 08:10:15;;;;;;;223.65;74.68;;;;;;;4.10;100.00;103059.19;5000781;28;20121;-86
2022/01/23 08:12:41;;;;;;;204.90;60.03;;;;;;;4.08;100.00;103053.91;4974012;28;20064;-87
2022/01/23 08:15:07;;;;;;;199.98;62.85;;;;;;;4.06;100.00;103054.00;5017107;28;20481;-88
2022/01/23 08:17:33;;;;;;;188.52;55.90;;;;;;;4.06;100.00;103058.47;5007147;28;20061;-87
2022/01/23 08:20:00;;;;;;;170.20;53.03;;;;;;;4.05;100.00;103060.22;4990908;28;20192;-85
2022/01/23 08:22:27;;;;;;;178.00;57.28;;;;;;;4.06;100.00;103061.13;4999026;28;20136;-85
2022/01/23 08:24:54;;;;;;;191.45;62.67;;;;;;;4.10;100.00;103061.84;4989004;28;20387;-86
2022/01/23 08:27:20;;;;;;;195.32;64.32;;;;;;;4.13;100.00;103065.22;5006318;28;20513;-85
2022/01/23 08:29:46;;;;;;;214.10;64.88;;;;;;;4.13;100.00;103067.03;4977138;28;20041;-85
2022/01/23 08:32:12;;;;;;;221.65;76.85;;;;;;;4.16;100.00;103062.44;4998971;28;20038;-85
2022/01/23 08:34:37;;;;;;;242.35;81.07;;;;;;;4.16;100.00;103067.75;4994371;28;20093;-86
2022/01/23 08:37:05;;;;;;;222.68;75.38;;;;;;;4.18;100.00;103078.31;5002576;28;20128;-84
2022/01/23 08:39:34;;;;;;;185.40;59.60;;;;;;;4.18;100.00;103078.31;4994979;28;20041;-85
2022/01/23 08:41:59;;;;;;;193.98;59.33;;;;;;;4.15;100.00;103081.13;5004491;28;20152;-85
2022/01/23 08:44:27;;;;;;;186.75;62.80;;;;;;;4.15;100.00;103081.97;4992832;28;20065;-85
2022/01/23 08:46:53;;;;;;;200.43;67.35;;;;;;;4.15;100.00;103087.28;5003305;28;20045;-86
2022/01/23 08:49:21;;;;;;;204.88;68.20;;;;;;;4.17;100.00;103087.19;5004805;28;20046;-87
2022/01/23 08:51:48;;;;;;;204.93;61.92;;;;;;;4.16;100.00;103089.00;4999238;28;20065;-86
2022/01/23 08:54:14;;;;;;;205.50;66.50;;;;;;;4.16;100.00;103089.00;4971348;28;20034;-86
2022/01/23 08:56:40;;;;;;;201.98;67.95;;;;;;;4.19;100.00;103096.84;4984229;28;20046;-87
2022/01/23 08:59:06;;;;;;;192.88;63.17;;;;;;;4.19;100.00;103088.00;4995523;28;20104;-87
2022/01/23 09:01:35;;;;;;;229.25;71.13;;;;;;;4.21;100.00;103089.69;5036441;28;20041;-87
2022/01/23 09:04:02;;;;;;;276.88;91.63;;;;;;;4.25;100.00;103096.56;4987588;28;20041;-86
2022/01/23 09:06:27;;;;;;;254.27;76.43;;;;;;;4.22;100.00;103096.72;5006271;28;20034;-87
2022/01/23 09:08:54;;;;;;;212.57;77.00;;;;;;;4.25;100.00;103107.19;4992634;28;20072;-87
2022/01/23 09:11:38;;;;;;;230.35;72.85;;;;;;;4.25;100.00;103099.22;5014382;28;20038;-87
2022/01/23 09:16:30;;;;;;;245.77;74.63;;;;;;;4.23;100.00;103089.59;5008554;28;20050;-88
2022/01/23 09:18:55;;;;;;;248.50;70.85;;;;;;;4.22;100.00;103099.38;4995750;28;20049;-88
2022/01/23 09:21:21;;;;;;;234.73;76.75;;;;;;;4.28;100.00;103093.78;4970744;28;20038;-87
2022/01/23 09:23:46;;;;;;;222.57;77.50;;;;;;;4.32;100.00;103088.34;5008652;28;20034;-89
2022/01/23 09:26:15;;;;;;;242.80;79.57;;;;;;;4.31;100.00;103092.78;4996234;28;20054;-87
2022/01/23 09:28:43;;;;;;;;;;;;;;;4.29;100.00;103090.22;4994607;28;20442;-87
2022/01/23 09:31:11;;;;;;;244.43;80.10;;;;;;;4.21;100.00;103095.00;5002491;28;19922;-87
2022/01/23 09:33:37;;;;;;;239.13;73.03;;;;;;;4.25;100.00;103088.59;4998470;28;20065;-87
2022/01/23 09:36:02;;;;;;;214.25;68.20;;;;;;;4.26;100.00;103093.00;4993698;28;20284;-88
2022/01/23 09:38:28;;;;;;;187.90;59.08;;;;;;;4.28;100.00;103093.78;5004933;28;20104;-87
2022/01/23 09:40:58;;;;;;;178.80;59.20;;;;;;;4.27;100.00;103100.03;5007820;28;20034;-87
2022/01/23 09:43:23;;;;;;;178.18;58.22;;;;;;;4.32;100.00;103104.31;5006277;28;20042;-87
2022/01/23 09:45:52;;;;;;;167.70;58.08;;;;;;;4.32;100.00;103099.00;5014027;28;20038;-87
2022/01/23 09:48:18;;;;;;;171.82;56.78;;;;;;;4.33;100.00;103101.56;5022235;28;20179;-87
2022/01/23 09:50:47;;;;;;;161.20;52.28;;;;;;;4.33;100.00;103106.88;5012291;28;20497;-86
2022/01/23 09:53:14;;;;;;;162.93;59.92;;;;;;;4.33;100.00;103100.69;5025923;28;20080;-87
2022/01/23 09:55:43;;;;;;;161.02;55.97;;;;;;;4.33;100.00;103104.22;5006712;28;20042;-87
2022/01/23 09:58:09;;;;;;;164.25;55.25;;;;;;;4.42;100.00;103106.47;5011077;28;20125;-87
2022/01/23 10:00:35;;;;;;;161.65;49.13;;;;;;;4.37;100.00;103112.91;4999651;28;20158;-88
2022/01/23 10:03:01;;;;;;;155.43;63.63;;;;;;;4.41;100.00;103109.22;4998744;28;29525;-87
2022/01/23 10:05:27;;;;;;;161.25;58.80;;;;;;;4.45;100.00;103110.78;5004615;28;20073;-87
2022/01/23 10:07:53;;;;;;;146.50;60.40;;;;;;;4.45;100.00;103111.66;5003537;28;20078;-87
2022/01/23 10:10:24;;;;;;;159.35;53.35;;;;;;;4.46;100.00;103112.50;4993015;28;20046;-87
2022/01/23 10:12:59;;;;;;;145.52;52.78;;;;;;;4.47;100.00;103108.94;4986520;28;20041;-86
2022/01/23 10:15:27;;;;;;;157.00;61.25;;;;;;;4.48;100.00;103111.50;5006279;28;20072;-89
2022/01/23 10:17:54;;;;;;;142.70;54.05;;;;;;;4.52;100.00;103113.13;5012111;28;20044;-87
2022/01/23 10:20:20;;;;;;;132.10;51.30;;;;;;;4.54;100.00;103115.69;5012223;28;20556;-87
2022/01/23 10:22:49;;;;;;;132.70;54.92;;;;;;;4.55;100.00;103108.59;5011842;28;20046;-87
2022/01/23 10:25:21;;;;;;;125.38;51.47;;;;;;;4.50;100.00;103109.66;5011694;28;20038;-87
2022/01/23 10:28:03;;;;;;;131.38;55.92;;;;;;;4.55;100.00;103112.13;5009923;28;20041;-87
2022/01/23 10:30:42;;;;;;;118.60;49.05;;;;;;;4.53;100.00;103109.50;4997509;28;20521;-88
2022/01/23 10:33:16;;;;;;;;;;;;;;;4.56;100.00;103105.84;5000954;28;20126;-86
2022/01/23 10:36:12;;;;;;;121.25;53.53;;;;;;;4.52;100.00;103109.59;4996126;28;19975;-87
2022/01/23 10:38:44;;;;;;;119.15;48.85;;;;;;;4.55;100.00;103111.25;5014333;28;20062;-86
2022/01/23 10:41:48;;;;;;;133.55;57.20;;;;;;;4.65;100.00;103117.88;5006933;28;20387;-88
2022/01/23 10:49:57;;;;;;;105.40;44.80;;;;;;;4.68;100.00;103109.75;5006092;28;20046;-87
2022/01/23 10:52:40;;;;;;;98.43;44.58;;;;;;;4.73;100.00;103110.41;5033645;28;20054;-87
2022/01/23 10:55:11;;;;;;;80.13;39.63;;;;;;;4.74;100.00;103110.34;4986166;28;20120;-87
2022/01/23 10:58:06;;;;;;;87.25;43.40;;;;;;;4.82;100.00;103110.00;5004203;28;20541;-88
2022/01/23 11:00:39;;;;;;;87.88;42.47;;;;;;;4.85;100.00;103109.00;5020764;28;20065;-88
2022/01/23 11:03:22;;;;;;;77.88;36.00;;;;;;;4.84;100.00;103107.28;5009783;28;20137;-88
2022/01/23 11:05:48;;;;;;;73.35;34.90;;;;;;;4.87;100.00;103112.47;5005563;28;20424;-87
2022/01/23 11:08:28;;;;;;;75.47;38.58;;;;;;;4.87;100.00;103113.31;5000774;28;20045;-88
2022/01/23 11:11:01;;;;;;;72.82;38.47;;;;;;;4.88;100.00;103112.38;4988525;28;20121;-87
2022/01/23 11:19:39;;;;;;;68.93;34.05;;;;;;;5.02;100.00;103101.09;5013410;28;20558;-87
2022/01/23 11:22:06;;;;;;;70.55;35.15;;;;;;;5.01;100.00;103096.72;5006441;28;20048;-87
2022/01/23 11:24:36;;;;;;;81.28;39.83;;;;;;;5.09;100.00;103096.34;4972701;28;20045;-88
2022/01/23 11:27:03;;;;;;;89.95;46.75;;;;;;;5.11;100.00;103099.78;4989483;28;20390;-87
2022/01/23 11:29:31;;;;;;;86.95;44.70;;;;;;;5.10;100.00;103092.75;4998938;28;20046;-87
2022/01/23 11:31:57;;;;;;;74.88;36.65;;;;;;;5.11;100.00;103084.69;5000627;28;20050;-87
2022/01/23 11:34:27;;;;;;;68.35;33.45;;;;;;;5.17;100.00;103084.38;5000932;28;20044;-87
2022/01/23 11:36:53;;;;;;;67.03;34.20;;;;;;;5.09;100.00;103086.56;4997876;28;20050;-87
2022/01/23 11:40:05;;;;;;;58.70;28.80;;;;;;;5.12;100.00;103081.09;5004409;28;20139;-87
2022/01/23 11:53:51;;;;;;;60.53;30.02;;;;;;;5.29;100.00;103066.97;4993616;28;20054;-87
2022/01/23 11:56:44;;;;;;;59.72;27.90;;;;;;;5.31;100.00;103059.78;4999967;28;20049;-88
2022/01/23 11:59:31;;;;;;;55.97;25.63;;;;;;;5.17;100.00;103068.41;5003830;28;20092;-86
2022/01/23 12:02:12;;;;;;;58.65;28.35;;;;;;;5.17;100.00;103068.41;5001200;28;20034;-88
2022/01/23 12:04:43;;;;;;;50.55;26.35;;;;;;;5.23;100.00;103063.75;5007187;28;20042;-89
2022/01/23 12:07:10;;;;;;;64.63;34.17;;;;;;;5.32;100.00;103060.63;4989293;28;20129;-88
2022/01/23 12:09:35;;;;;;;60.97;31.30;;;;;;;5.41;100.00;103054.88;5004393;28;20504;-87
2022/01/23 12:12:19;;;;;;;54.15;28.92;;;;;;;5.34;100.00;103051.63;4985649;28;20042;-88
2022/01/23 12:17:21;;;;;;;61.45;33.53;;;;;;;5.48;100.00;103055.44;4997582;28;20117;-87
2022/01/23 12:19:58;;;;;;;49.55;25.25;;;;;;;5.45;100.00;103060.91;5011281;28;20099;-87
2022/01/23 12:22:32;;;;;;;44.67;23.15;;;;;;;5.42;100.00;103054.78;5001861;28;20046;-88
2022/01/23 12:25:11;;;;;;;41.47;22.75;;;;;;;5.51;100.00;103055.28;4999343;28;20041;-88
2022/01/23 12:27:37;;;;;;;45.00;23.60;;;;;;;5.47;100.00;103046.56;5005418;28;20137;-88
2022/01/23 12:30:28;;;;;;;47.92;27.92;;;;;;;5.56;100.00;103056.78;4988920;28;20033;-88
2022/01/23 12:33:15;;;;;;;44.38;24.85;;;;;;;5.55;100.00;103054.16;4975497;28;20043;-87
2022/01/23 12:35:46;;;;;;;47.90;25.77;;;;;;;5.65;100.00;103053.63;4970458;28;20643;-87
2022/01/23 12:38:18;;;;;;;43.65;22.48;;;;;;;5.60;100.00;103053.00;5030059;28;20097;-88
2022/01/23 12:41:23;;;;;;;43.08;22.52;;;;;;;5.57;100.00;103047.81;5001562;28;20507;-87
2022/01/23 12:44:04;;;;;;;40.70;20.67;;;;;;;5.57;100.00;103045.16;4999452;28;20061;-88
2022/01/23 12:46:32;;;;;;;44.10;23.40;;;;;;;5.68;100.00;103043.78;5013492;28;20514;-87
2022/01/23 12:49:26;;;;;;;41.65;20.80;;;;;;;5.65;100.00;103047.44;5000996;28;20053;-87
2022/01/23 12:52:07;;;;;;;36.08;19.48;;;;;;;5.64;100.00;103041.28;4998221;28;20050;-87
2022/01/23 12:54:47;;;;;;;39.25;22.98;;;;;;;5.68;100.00;103046.44;5000424;28;20046;-86
2022/01/23 12:57:17;;;;;;;33.80;19.08;;;;;;;5.63;100.00;103034.19;4998465;28;20046;-88
2022/01/23 13:00:06;;;;;;;29.67;15.82;;;;;;;5.59;100.00;103040.63;5017747;28;20712;-87
2022/01/23 13:02:50;;;;;;;;;;;;;;;5.64;100.00;103037.75;4982650;28;20057;-87
2022/01/23 13:05:28;;;;;;;27.95;15.30;;;;;;;5.51;100.00;103040.16;4994628;28;19921;-87
2022/01/23 13:10:56;;;;;;;24.70;14.57;;;;;;;5.56;100.00;103037.28;4997310;28;20050;-87
2022/01/23 13:13:38;;;;;;;22.35;13.98;;;;;;;5.59;100.00;103037.13;4969646;28;20057;-88
2022/01/23 13:18:44;;;;;;;27.35;15.02;;;;;;;5.62;100.00;103040.47;4994419;28;20479;-89
2022/01/23 13:32:07;;;;;;;9.98;5.80;;;;;;;5.53;100.00;103038.28;4988849;28;20042;-87
2022/01/23 13:34:42;;;;;;;13.18;7.82;;;;;;;5.57;100.00;103038.97;5001085;28;20108;-87
2022/01/23 13:37:10;;;;;;;15.15;9.35;;;;;;;5.61;100.00;103046.75;5023049;28;20038;-87
2022/01/23 13:39:44;;;;;;;20.17;10.15;;;;;;;5.60;100.00;103046.81;5003265;28;20045;-87
2022/01/23 13:59:24;;;;;;;8.48;4.47;;;;;;;5.49;100.00;103041.16;5008466;28;20591;-86
2022/01/23 14:04:19;;;;;;;6.43;4.38;;;;;;;5.56;100.00;103048.78;5001664;28;20038;-87
2022/01/23 14:06:45;;;;;;;9.25;5.07;;;;;;;5.58;100.00;103041.59;4971062;28;20047;-88
2022/01/23 14:09:12;;;;;;;12.40;7.20;;;;;;;5.57;100.00;103038.97;4998099;28;20049;-86
2022/01/23 14:11:39;;;;;;;10.45;6.30;;;;;;;5.57;100.00;103037.16;5010806;28;20045;-88
2022/01/23 14:14:12;;;;;;;13.57;8.25;;;;;;;5.56;100.00;103043.44;5009364;28;20546;-88
2022/01/23 14:16:37;;;;;;;15.10;9.27;;;;;;;5.55;100.00;103035.53;4994738;28;20144;-89
2022/01/23 14:19:35;;;;;;;16.27;8.98;;;;;;;5.54;100.00;103036.47;5006990;28;20505;-87
2022/01/23 14:22:01;;;;;;;17.25;8.63;;;;;;;5.52;100.00;103031.22;4977949;28;20402;-88
2022/01/23 14:24:32;;;;;;;12.25;7.85;;;;;;;5.53;100.00;103032.09;5021057;28;20042;-88
2022/01/23 14:27:11;;;;;;;13.80;8.00;;;;;;;5.53;100.00;103032.94;5025730;28;20045;-87
2022/01/23 14:30:07;;;;;;;14.90;8.23;;;;;;;5.53;100.00;103032.94;5011019;28;20490;-88
2022/01/23 14:32:44;;;;;;;13.07;7.63;;;;;;;5.50;100.00;103034.91;4998072;28;20042;-87
2022/01/23 14:35:19;;;;;;;10.55;6.38;;;;;;;5.47;100.00;103027.06;5003709;28;20042;-87
2022/01/23 14:37:49;;;;;;;10.27;6.18;;;;;;;5.43;100.00;103029.00;4991501;28;20053;-88
2022/01/23 14:40:27;;;;;;;10.43;6.13;;;;;;;5.49;100.00;103033.16;5010172;28;20080;-89
2022/01/23 14:43:07;;;;;;;17.80;9.52;;;;;;;5.47;100.00;103033.25;4984444;28;20037;-87
2022/01/23 14:45:38;;;;;;;19.20;12.27;;;;;;;5.53;100.00;103032.09;5033089;28;20093;-87